createdAt,value
2019-04-11T07:37:19.092Z,101904.00
2019-04-11T07:40:09.514Z,101917.75
2019-04-11T07:42:59.410Z,101905.19
2019-04-11T07:45:30.194Z,101917.06
2019-04-11T07:48:12.866Z,101915.98
2019-04-11T07:50:44.528Z,101917.14
2019-04-11T07:53:17.943Z,101912.34
2019-04-11T07:55:49.636Z,101916.20
2019-04-11T07:58:23.802Z,101909.19
2019-04-11T08:00:59.279Z,101905.16
2019-04-11T08:03:49.192Z,101910.84
2019-04-11T08:06:39.040Z,101909.55
2019-04-11T08:09:13.186Z,101914.08
2019-04-11T08:11:46.222Z,101912.62
2019-04-11T08:14:37.602Z,101919.16
2019-04-11T08:17:11.463Z,101922.00
2019-04-11T08:20:00.678Z,101911.63
2019-04-11T08:22:39.577Z,101923.68
2019-04-11T08:25:15.308Z,101921.86
2019-04-11T08:28:00.256Z,101922.87
2019-04-11T08:30:28.041Z,101926.09
2019-04-11T08:33:02.410Z,101921.89
2019-04-11T08:35:36.622Z,101925.47
2019-04-11T08:38:22.490Z,101936.05
2019-04-11T08:41:02.973Z,101928.29
2019-04-11T08:43:35.376Z,101924.00
2019-04-11T08:46:15.012Z,101912.73
2019-04-11T08:48:46.230Z,101924.13
2019-04-11T08:51:19.293Z,101915.28
2019-04-11T08:54:09.112Z,101921.06
2019-04-11T08:56:43.192Z,101924.48
2019-04-11T08:59:22.321Z,101923.75
2019-04-11T09:01:53.970Z,101919.54
2019-04-11T09:04:43.941Z,101923.31
2019-04-11T09:07:17.101Z,101928.69
2019-04-11T09:10:07.485Z,101922.65
2019-04-11T09:12:40.741Z,101908.73
2019-04-11T09:15:35.238Z,101912.00
2019-04-11T09:18:10.381Z,101902.85
2019-04-11T09:20:47.800Z,101904.00
2019-04-11T09:23:19.764Z,101899.49
2019-04-11T09:26:01.719Z,101891.31
2019-04-11T09:28:35.625Z,101906.27
2019-04-11T09:31:09.180Z,101894.63
2019-04-11T09:33:57.713Z,101908.19
2019-04-11T09:36:49.308Z,101909.93
2019-04-11T09:39:35.053Z,101914.15
2019-04-11T09:42:10.151Z,101901.10
2019-04-11T09:44:47.208Z,101905.61
2019-04-11T09:47:30.477Z,101900.67
2019-04-11T09:50:12.981Z,101912.84
2019-04-11T09:52:49.573Z,101913.68
2019-04-11T09:55:34.934Z,101909.69
2019-04-11T09:58:08.961Z,101909.78
2019-04-11T10:00:45.549Z,101911.23
2019-04-11T10:03:19.636Z,101915.41
2019-04-11T10:05:52.951Z,101908.39
2019-04-11T10:08:41.735Z,101911.87
2019-04-11T10:11:32.490Z,101911.98
2019-04-11T10:14:07.257Z,101908.88
2019-04-11T10:16:44.350Z,101905.00
2019-04-11T10:19:27.762Z,101917.60
2019-04-11T10:22:02.780Z,101919.22
2019-04-11T10:24:37.012Z,101918.25
2019-04-11T10:27:10.092Z,101918.89
2019-04-11T10:29:59.369Z,101926.27
2019-04-11T10:32:35.442Z,101914.92
2019-04-11T10:35:08.799Z,101922.97
2019-04-11T10:37:42.141Z,101921.16
2019-04-11T10:40:32.268Z,101922.90
2019-04-11T10:43:04.333Z,101928.30
2019-04-11T10:45:55.209Z,101925.00
2019-04-11T10:48:34.526Z,101927.16
2019-04-11T10:51:07.327Z,101928.75
2019-04-11T10:53:39.541Z,101914.80
2019-04-11T10:56:30.498Z,101924.19
2019-04-11T10:59:02.035Z,101912.91
2019-04-11T11:01:48.412Z,101919.58
2019-04-11T11:04:25.479Z,101908.41
2019-04-11T11:07:00.164Z,101916.95
2019-04-11T11:09:32.297Z,101924.01
2019-04-11T11:12:17.448Z,101917.03
2019-04-11T11:15:09.531Z,101911.86
2019-04-11T11:18:32.084Z,101926.30
2019-04-11T11:20:42.561Z,101919.05
2019-04-11T11:23:29.093Z,101927.08
2019-04-11T11:26:05.220Z,101931.72
2019-04-11T11:28:38.736Z,101926.73
2019-04-11T11:31:14.282Z,101936.31
2019-04-11T11:33:46.947Z,101936.83
2019-04-11T11:36:19.370Z,101936.98
2019-04-11T11:39:02.438Z,101934.79
2019-04-11T11:41:54.523Z,101938.61
2019-04-11T11:44:28.652Z,101944.70
2019-04-11T11:47:18.117Z,101944.62
2019-04-11T11:49:57.162Z,101945.03
2019-04-11T11:52:36.514Z,101946.73
2019-04-11T11:55:10.364Z,101950.73
2019-04-11T11:57:43.359Z,101951.95
2019-04-11T12:00:23.469Z,101956.71
2019-04-11T12:02:59.363Z,101946.34
2019-04-11T12:05:32.762Z,101942.63
2019-04-11T12:08:08.794Z,101953.02
2019-04-11T12:10:44.023Z,101955.41
2019-04-11T12:13:34.631Z,101957.62
2019-04-11T12:16:16.024Z,101957.05
2019-04-11T12:18:52.645Z,101959.43
2019-04-11T12:21:33.228Z,101959.70
2019-04-11T12:24:08.047Z,101964.23
2019-04-11T12:26:44.060Z,101952.55
2019-04-11T12:29:21.858Z,101949.40
2019-04-11T12:31:55.725Z,101949.47
2019-04-11T12:34:45.063Z,101949.24
2019-04-11T12:37:19.806Z,101941.76
2019-04-11T12:40:09.749Z,101938.39
2019-04-11T12:42:41.530Z,101935.55
2019-04-11T12:45:17.224Z,101936.28
2019-04-11T12:47:48.529Z,101933.50
2019-04-11T12:50:23.063Z,101938.11
2019-04-11T12:53:02.289Z,101935.10
2019-04-11T12:55:36.299Z,101932.45
2019-04-11T12:58:24.985Z,101931.44
2019-04-11T13:01:14.365Z,101925.45
2019-04-11T13:04:05.218Z,101924.83
2019-04-11T13:06:47.350Z,101933.55
2019-04-11T13:09:20.645Z,101929.26
2019-04-11T13:12:02.594Z,101934.35
2019-04-11T13:14:44.639Z,101927.42
2019-04-11T13:17:29.825Z,101934.80
2019-04-11T13:20:13.224Z,101932.38
2019-04-11T13:22:44.946Z,101928.71
2019-04-11T13:25:34.228Z,101933.59
2019-04-11T13:28:05.505Z,101932.36
2019-04-11T13:30:57.586Z,101942.64
2019-04-11T13:33:28.587Z,101939.54
2019-04-11T13:36:01.541Z,101934.43
2019-04-11T13:38:34.481Z,101929.71
2019-04-11T13:41:10.513Z,101919.88
2019-04-11T13:43:43.557Z,101924.55
2019-04-11T13:46:33.028Z,101926.52
2019-04-11T13:49:06.078Z,101927.96
2019-04-11T13:51:49.792Z,101924.95
2019-04-11T13:54:25.225Z,101922.86
2019-04-11T13:57:05.271Z,101922.30
2019-04-11T13:59:36.379Z,101926.33
2019-04-11T14:02:13.634Z,101927.95
2019-04-11T14:04:51.221Z,101926.34
2019-04-11T14:07:24.253Z,101921.92
2019-04-11T14:10:07.077Z,101922.13
2019-04-11T14:12:39.042Z,101916.77
2019-04-11T14:15:24.234Z,101922.27
2019-04-11T14:18:13.405Z,101923.34
2019-04-11T14:20:47.568Z,101919.03
2019-04-11T14:23:24.644Z,101917.25
2019-04-11T14:26:10.213Z,101916.48
2019-04-11T14:28:43.326Z,101920.11
2019-04-11T14:31:33.224Z,101919.16
2019-04-11T14:37:22.130Z,101927.17
2019-04-11T14:39:58.411Z,101914.76
2019-04-11T14:42:42.204Z,101923.98
2019-04-11T14:45:14.370Z,101922.73
2019-04-11T14:48:03.650Z,101919.02
2019-04-11T14:50:40.796Z,101927.97
2019-04-11T14:53:31.063Z,101924.02
2019-04-11T14:56:04.390Z,101922.17
2019-04-11T14:58:43.307Z,101926.75
2019-04-11T15:01:16.601Z,101918.95
2019-04-11T15:04:01.835Z,101920.67
2019-04-11T15:06:38.220Z,101917.73
2019-04-11T15:09:09.266Z,101918.82
2019-04-11T15:11:55.201Z,101924.61
2019-04-11T15:14:47.533Z,101924.47
2019-04-11T15:17:19.667Z,101919.94
2019-04-11T15:20:02.334Z,101923.53
2019-04-11T15:22:50.245Z,101926.59
2019-04-11T15:25:28.236Z,101929.47
2019-04-11T15:28:08.064Z,101928.30
2019-04-11T15:30:50.518Z,101927.88
2019-04-11T15:33:30.265Z,101930.44
2019-04-11T15:36:03.541Z,101935.87
2019-04-11T15:38:53.341Z,101932.34
2019-04-11T15:41:25.484Z,101927.41
2019-04-11T15:44:15.031Z,101931.59
2019-04-11T15:46:47.905Z,101936.59
2019-04-11T15:49:29.839Z,101926.27
2019-04-11T15:51:56.038Z,101937.41
2019-04-11T15:54:32.462Z,101941.27
2019-04-11T15:57:05.831Z,101937.88
2019-04-11T15:59:37.224Z,101942.26
2019-04-11T16:02:25.395Z,101940.02
2019-04-11T16:04:59.350Z,101940.59
2019-04-11T16:07:52.214Z,101939.09
2019-04-11T16:10:25.420Z,101939.54
2019-04-11T16:13:14.839Z,101942.25
2019-04-11T16:15:50.648Z,101944.42
2019-04-11T16:18:33.086Z,101945.65
2019-04-11T16:21:24.290Z,101939.70
2019-04-11T16:23:57.609Z,101946.56
2019-04-11T16:26:34.036Z,101944.92
2019-04-11T16:29:19.299Z,101953.61
2019-04-11T16:31:51.203Z,101950.09
2019-04-11T16:34:48.391Z,101942.66
2019-04-11T16:37:17.565Z,101950.36
2019-04-11T16:40:04.465Z,101952.37
2019-04-11T16:42:37.482Z,101948.27
2019-04-11T16:45:20.035Z,101946.73
2019-04-11T16:47:56.269Z,101947.92
2019-04-11T16:50:26.377Z,101946.79
2019-04-11T16:52:57.975Z,101954.61
2019-04-11T16:55:29.256Z,101945.66
2019-04-11T16:58:01.037Z,101954.31
2019-04-11T17:00:32.424Z,101960.36
2019-04-11T17:03:04.068Z,101950.33
2019-04-11T17:05:37.227Z,101957.59
2019-04-11T17:08:11.227Z,101949.65
2019-04-11T17:10:59.595Z,101957.59
